Time;durP1;ratioP1;P1;durP2;ratioP2;P2;SDS_P1;SDS_P2;PMS_P1;PMS_P2;Temp;Humidity;BMP_temperature;BMP_pressure;BME280_temperature;BME280_humidity;BME280_pressure;Samples;Min_cycle;Max_cycle;Signal;HPM_P1;HPM_P2
2021/04/15 00:00:11;;;;;;;6.20;4.47;;;;;;;;;;5095341;28;20614;-64
2021/04/15 00:02:38;;;;;;;8.10;4.55;;;;;;;;;;5095262;28;20207;-63
2021/04/15 00:05:06;;;;;;;5.90;4.85;;;;;;;;;;5095627;28;20224;-63
2021/04/15 00:07:32;;;;;;;6.35;4.30;;;;;;;;;;5095074;28;20694;-63
2021/04/15 00:09:59;;;;;;;5.75;4.60;;;;;;;;;;5095517;28;20200;-63
2021/04/15 00:12:26;;;;;;;5.78;5.10;;;;;;;;;;5095611;28;20196;-62
2021/04/15 00:14:53;;;;;;;7.85;4.50;;;;;;;;;;5093804;28;20280;-62
2021/04/15 00:17:19;;;;;;;5.05;4.35;;;;;;;;;;5093602;28;20242;-63
2021/04/15 00:19:47;;;;;;;5.43;4.90;;;;;;;;;;5093842;28;20699;-63
2021/04/15 00:22:14;;;;;;;5.18;4.05;;;;;;;;;;5093757;28;20196;-63
2021/04/15 00:24:41;;;;;;;5.50;4.88;;;;;;;;;;5097703;28;20224;-63
2021/04/15 00:27:08;;;;;;;5.68;3.88;;;;;;;;;;5097680;28;20750;-62
2021/04/15 00:29:35;;;;;;;7.35;4.32;;;;;;;;;;5097951;28;20281;-63
2021/04/15 00:32:01;;;;;;;8.68;4.78;;;;;;;;;;5097846;28;20208;-62
2021/04/15 00:34:28;;;;;;;8.60;4.47;;;;;;;;;;5097888;28;20203;-62
2021/04/15 00:36:56;;;;;;;4.70;4.20;;;;;;;;;;5097428;28;20672;-62
2021/04/15 00:39:22;;;;;;;4.07;3.67;;;;;;;;;;5097652;28;20196;-63
2021/04/15 00:41:49;;;;;;;6.88;4.95;;;;;;;;;;5097639;28;20211;-62
2021/04/15 00:44:16;;;;;;;6.80;4.75;;;;;;;;;;5097615;28;20196;-64
2021/04/15 00:46:52;;;;;;;9.65;5.00;;;;;;;;;;5097524;28;20245;-63
2021/04/15 00:49:22;;;;;;;7.43;4.40;;;;;;;;;;5097351;28;20307;-63
2021/04/15 00:51:51;;;;;;;7.05;4.15;;;;;;;;;;5098414;28;20312;-63
2021/04/15 00:54:31;;;;;;;7.15;5.20;;;;;;;;;;5097923;28;20196;-63
2021/04/15 00:56:59;;;;;;;6.00;4.22;;;;;;;;;;5098812;28;20177;-62
2021/04/15 00:59:26;;;;;;;5.30;3.90;;;;;;;;;;5100881;28;20196;-63
2021/04/15 01:01:53;;;;;;;5.80;5.20;;;;;;;;;;5103542;28;20204;-62
2021/04/15 01:04:20;;;;;;;8.25;4.47;;;;;;;;;;5100450;28;20204;-62
2021/04/15 01:06:47;;;;;;;10.10;5.10;;;;;;;;;;5097975;28;20212;-63
2021/04/15 01:09:14;;;;;;;10.18;5.50;;;;;;;;;;5101017;28;20220;-62
2021/04/15 01:11:47;;;;;;;9.63;6.22;;;;;;;;;;5101242;28;20208;-62
2021/04/15 01:14:18;;;;;;;8.85;5.03;;;;;;;;;;5098039;28;20184;-62
2021/04/15 01:16:48;;;;;;;8.18;4.45;;;;;;;;;;5099103;28;20188;-63
2021/04/15 01:19:24;;;;;;;6.97;5.60;;;;;;;;;;5097390;28;20192;-62
2021/04/15 01:22:18;;;;;;;7.20;4.90;;;;;;;;;;5097140;28;20188;-63
2021/04/15 01:24:47;;;;;;;5.40;4.00;;;;;;;;;;5060925;28;20228;-63
2021/04/15 01:27:32;;;;;;;5.68;4.45;;;;;;;;;;5096827;28;20204;-63
2021/04/15 01:30:05;;;;;;;5.80;4.95;;;;;;;;;;5096751;28;20249;-62
2021/04/15 01:32:35;;;;;;;6.60;5.53;;;;;;;;;;5096686;28;20181;-63
2021/04/15 01:35:05;;;;;;;7.07;5.80;;;;;;;;;;5095859;28;20220;-62
2021/04/15 01:37:35;;;;;;;9.02;5.32;;;;;;;;;;5096941;28;20207;-62
2021/04/15 01:40:06;;;;;;;7.45;5.15;;;;;;;;;;5096785;28;20253;-63
2021/04/15 01:42:35;;;;;;;6.60;5.28;;;;;;;;;;5096462;28;20590;-62
2021/04/15 01:45:07;;;;;;;7.15;6.07;;;;;;;;;;5096243;28;20720;-62
2021/04/15 01:47:35;;;;;;;7.30;5.85;;;;;;;;;;5096175;28;20184;-62
2021/04/15 01:50:05;;;;;;;8.90;5.95;;;;;;;;;;5096472;28;20203;-62
2021/04/15 01:52:33;;;;;;;7.90;5.28;;;;;;;;;;5096110;28;20250;-62
2021/04/15 01:55:02;;;;;;;8.93;6.50;;;;;;;;;;5096520;28;20227;-62
2021/04/15 01:57:31;;;;;;;8.35;5.88;;;;;;;;;;5096869;28;20615;-62
2021/04/15 02:00:00;;;;;;;10.05;6.13;;;;;;;;;;5096372;28;20295;-62
2021/04/15 02:02:29;;;;;;;7.53;6.30;;;;;;;;;;5096682;28;20204;-62
2021/04/15 02:04:58;;;;;;;8.60;5.50;;;;;;;;;;5096415;28;20224;-62
2021/04/15 02:07:25;;;;;;;8.32;6.88;;;;;;;;;;5095753;28;20219;-64
2021/04/15 02:09:53;;;;;;;8.30;6.80;;;;;;;;;;5096007;28;20223;-62
2021/04/15 02:12:22;;;;;;;8.57;6.93;;;;;;;;;;5095967;28;20200;-62
2021/04/15 02:14:51;;;;;;;8.45;6.75;;;;;;;;;;5095668;28;20224;-62
2021/04/15 02:17:19;;;;;;;7.88;7.07;;;;;;;;;;5096767;28;20204;-63
2021/04/15 02:19:48;;;;;;;9.40;6.93;;;;;;;;;;5095509;28;20249;-62
2021/04/15 02:22:20;;;;;;;9.70;7.47;;;;;;;;;;5096128;28;20242;-62
2021/04/15 02:24:50;;;;;;;7.75;6.68;;;;;;;;;;5096134;28;20269;-62
2021/04/15 02:27:18;;;;;;;9.13;7.35;;;;;;;;;;5113850;28;20204;-63
2021/04/15 02:29:49;;;;;;;8.57;7.50;;;;;;;;;;5114610;28;20227;-63
2021/04/15 02:32:19;;;;;;;8.80;8.00;;;;;;;;;;5114469;28;20188;-62
2021/04/15 02:34:48;;;;;;;10.05;6.65;;;;;;;;;;5110214;28;20231;-63
2021/04/15 02:37:17;;;;;;;9.13;7.00;;;;;;;;;;5115634;28;20204;-63
2021/04/15 02:39:45;;;;;;;9.50;7.03;;;;;;;;;;5101413;28;20200;-63
2021/04/15 02:42:13;;;;;;;10.05;8.43;;;;;;;;;;5095679;28;20204;-63
2021/04/15 02:44:47;;;;;;;8.98;7.15;;;;;;;;;;5095423;28;20220;-63
2021/04/15 02:47:15;;;;;;;10.68;7.82;;;;;;;;;;5094320;28;20185;-63
2021/04/15 02:49:43;;;;;;;10.38;7.40;;;;;;;;;;5095083;28;20251;-62
2021/04/15 02:52:13;;;;;;;11.88;8.20;;;;;;;;;;5095288;28;20196;-62
2021/04/15 02:54:41;;;;;;;10.13;8.10;;;;;;;;;;5094966;28;20282;-63
2021/04/15 02:57:11;;;;;;;14.00;7.78;;;;;;;;;;5095095;28;20253;-62
2021/04/15 02:59:39;;;;;;;10.18;8.50;;;;;;;;;;5094755;28;20200;-62
2021/04/15 03:02:07;;;;;;;14.48;7.90;;;;;;;;;;5094687;28;20204;-63
2021/04/15 03:04:35;;;;;;;12.60;8.80;;;;;;;;;;5094303;28;20196;-63
2021/04/15 03:07:03;;;;;;;10.43;8.00;;;;;;;;;;5094166;28;20204;-63
2021/04/15 03:09:34;;;;;;;8.30;7.03;;;;;;;;;;5094662;28;20269;-63
2021/04/15 03:12:02;;;;;;;8.80;7.60;;;;;;;;;;5094344;28;20640;-62
2021/04/15 03:14:32;;;;;;;12.40;7.85;;;;;;;;;;5094591;28;20200;-63
2021/04/15 03:17:02;;;;;;;12.30;8.52;;;;;;;;;;5094864;28;20200;-63
2021/04/15 03:19:32;;;;;;;11.93;8.85;;;;;;;;;;5094494;28;20192;-62
2021/04/15 03:22:00;;;;;;;16.88;9.00;;;;;;;;;;5095501;28;20184;-62
2021/04/15 03:24:30;;;;;;;13.57;8.07;;;;;;;;;;5094647;28;20200;-62
2021/04/15 03:27:00;;;;;;;14.73;8.90;;;;;;;;;;5094407;28;20196;-63
2021/04/15 03:29:29;;;;;;;13.10;8.48;;;;;;;;;;5094404;28;20227;-63
2021/04/15 03:32:03;;;;;;;12.30;8.50;;;;;;;;;;5094476;28;20203;-63
2021/04/15 03:34:32;;;;;;;12.88;9.02;;;;;;;;;;5094233;28;20185;-62
2021/04/15 03:37:00;;;;;;;13.30;8.85;;;;;;;;;;5094328;28;20207;-63
2021/04/15 03:39:30;;;;;;;11.50;8.40;;;;;;;;;;5094140;28;20200;-61
2021/04/15 03:41:58;;;;;;;11.77;9.15;;;;;;;;;;5094116;28;20257;-62
2021/04/15 03:44:27;;;;;;;13.63;10.00;;;;;;;;;;5093966;28;20730;-63
2021/04/15 03:46:55;;;;;;;19.00;9.50;;;;;;;;;;5094223;28;20252;-63
2021/04/15 03:49:24;;;;;;;16.27;9.75;;;;;;;;;;5093857;28;20212;-62
2021/04/15 03:51:53;;;;;;;13.45;10.60;;;;;;;;;;5094000;28;20204;-62
2021/04/15 03:54:21;;;;;;;14.98;10.02;;;;;;;;;;5093972;28;20575;-63
2021/04/15 03:56:51;;;;;;;16.42;9.85;;;;;;;;;;5094449;28;20306;-62
2021/04/15 03:59:22;;;;;;;15.93;11.38;;;;;;;;;;5093595;28;20196;-62
2021/04/15 04:01:50;;;;;;;14.75;9.82;;;;;;;;;;5094167;28;20188;-61
2021/04/15 04:04:22;;;;;;;13.52;11.55;;;;;;;;;;5094184;28;20248;-62
2021/04/15 04:08:01;;;;;;;14.60;11.30;;;;;;;;;;5133062;27;20933;-61
2021/04/15 04:10:30;;;;;;;17.35;10.85;;;;;;;;;;5132540;27;20248;-63
2021/04/15 04:13:00;;;;;;;11.95;9.43;;;;;;;;;;5132468;27;20352;-62
2021/04/15 04:15:28;;;;;;;19.63;12.15;;;;;;;;;;5131942;27;20229;-63
2021/04/15 04:18:04;;;;;;;16.80;11.13;;;;;;;;;;5131999;27;20191;-62
2021/04/15 04:20:31;;;;;;;18.33;10.23;;;;;;;;;;5131643;27;20670;-63
2021/04/15 04:23:02;;;;;;;18.60;11.25;;;;;;;;;;5132042;27;20199;-62
2021/04/15 04:25:33;;;;;;;17.00;11.68;;;;;;;;;;5131925;27;20222;-62
2021/04/15 04:28:03;;;;;;;17.58;10.57;;;;;;;;;;5131785;27;20281;-62
2021/04/15 04:30:34;;;;;;;13.27;11.57;;;;;;;;;;5131916;27;20187;-62
2021/04/15 04:33:02;;;;;;;18.48;12.35;;;;;;;;;;5131917;27;20201;-63
2021/04/15 04:35:31;;;;;;;24.10;11.55;;;;;;;;;;5131641;27;20594;-62
2021/04/15 04:38:02;;;;;;;16.85;11.63;;;;;;;;;;5131243;27;20203;-62
2021/04/15 04:40:33;;;;;;;16.15;11.95;;;;;;;;;;5131505;27;20188;-63
2021/04/15 04:43:01;;;;;;;16.75;10.90;;;;;;;;;;5131390;27;20187;-61
2021/04/15 04:45:28;;;;;;;18.05;11.70;;;;;;;;;;5131374;27;20218;-62
2021/04/15 04:47:58;;;;;;;16.60;12.35;;;;;;;;;;5130986;27;20694;-60
2021/04/15 04:50:29;;;;;;;17.63;13.32;;;;;;;;;;5131209;27;20667;-63
2021/04/15 04:52:57;;;;;;;20.70;12.52;;;;;;;;;;5131134;27;20187;-62
2021/04/15 04:55:27;;;;;;;19.45;12.50;;;;;;;;;;5130999;27;20310;-62
2021/04/15 04:57:54;;;;;;;19.05;12.52;;;;;;;;;;5130899;27;20202;-62
2021/04/15 05:00:22;;;;;;;15.63;11.73;;;;;;;;;;5132424;27;20202;-62
2021/04/15 05:02:52;;;;;;;16.83;12.27;;;;;;;;;;5131491;27;20610;-60
2021/04/15 05:05:20;;;;;;;19.38;12.40;;;;;;;;;;5131279;27;20229;-63
2021/04/15 05:07:49;;;;;;;21.75;12.50;;;;;;;;;;5130881;27;20260;-62
2021/04/15 05:10:19;;;;;;;16.33;12.70;;;;;;;;;;5132001;27;20199;-62
2021/04/15 05:12:49;;;;;;;17.40;12.30;;;;;;;;;;5131690;27;20636;-62
2021/04/15 05:15:17;;;;;;;13.38;11.43;;;;;;;;;;5132609;27;20219;-63
2021/04/15 05:17:44;;;;;;;15.00;10.48;;;;;;;;;;5127257;27;20192;-61
2021/04/15 05:20:13;;;;;;;20.67;11.40;;;;;;;;;;5117788;28;20199;-62
2021/04/15 05:22:41;;;;;;;22.85;11.07;;;;;;;;;;5118008;27;20199;-64
2021/04/15 05:25:12;;;;;;;12.05;10.32;;;;;;;;;;5117640;27;20295;-61
2021/04/15 05:27:39;;;;;;;18.05;11.20;;;;;;;;;;5118000;28;20225;-63
2021/04/15 05:30:15;;;;;;;18.95;11.85;;;;;;;;;;5118787;28;20200;-63
2021/04/15 05:32:42;;;;;;;15.95;9.70;;;;;;;;;;5117009;28;20266;-63
2021/04/15 05:35:10;;;;;;;15.00;10.57;;;;;;;;;;5116342;28;20226;-63
2021/04/15 05:37:37;;;;;;;19.55;11.43;;;;;;;;;;5116591;28;20631;-63
2021/04/15 05:40:04;;;;;;;15.55;11.25;;;;;;;;;;5116909;28;20253;-63
2021/04/15 05:42:35;;;;;;;14.75;10.90;;;;;;;;;;5116975;28;20203;-63
2021/04/15 05:45:06;;;;;;;11.93;10.50;;;;;;;;;;5128673;28;20248;-62
2021/04/15 05:47:38;;;;;;;16.70;11.98;;;;;;;;;;5132273;28;20211;-62
2021/04/15 05:50:06;;;;;;;16.17;12.35;;;;;;;;;;5131833;28;20184;-63
2021/04/15 05:52:35;;;;;;;15.32;11.85;;;;;;;;;;5132396;28;20293;-62
2021/04/15 05:55:05;;;;;;;17.92;12.85;;;;;;;;;;5131576;28;20219;-63
2021/04/15 05:57:35;;;;;;;19.40;11.95;;;;;;;;;;5132277;28;20196;-63
2021/04/15 06:00:05;;;;;;;15.55;12.38;;;;;;;;;;5133156;28;20199;-62
2021/04/15 06:02:36;;;;;;;18.30;11.55;;;;;;;;;;5132841;28;20191;-63
2021/04/15 06:05:07;;;;;;;14.13;12.02;;;;;;;;;;5119348;28;20223;-62
2021/04/15 06:07:35;;;;;;;14.68;11.55;;;;;;;;;;5115955;28;20226;-62
2021/04/15 06:10:02;;;;;;;15.15;11.95;;;;;;;;;;5116103;28;20245;-62
2021/04/15 06:12:32;;;;;;;11.07;9.90;;;;;;;;;;5128741;28;20225;-63
2021/04/15 06:15:02;;;;;;;16.52;10.45;;;;;;;;;;5132065;28;20245;-62
2021/04/15 06:17:30;;;;;;;18.70;10.30;;;;;;;;;;5132205;28;20199;-62
2021/04/15 06:20:00;;;;;;;18.15;11.80;;;;;;;;;;5131877;28;20207;-63
2021/04/15 06:22:29;;;;;;;14.45;11.25;;;;;;;;;;5130158;28;20211;-63
2021/04/15 06:24:59;;;;;;;18.40;10.95;;;;;;;;;;5128250;28;20226;-63
2021/04/15 06:27:26;;;;;;;14.50;8.65;;;;;;;;;;5127963;28;20211;-62
2021/04/15 06:29:56;;;;;;;13.15;10.23;;;;;;;;;;5126828;28;20221;-62
2021/04/15 06:32:25;;;;;;;13.70;9.80;;;;;;;;;;5124811;28;20215;-62
2021/04/15 06:34:52;;;;;;;11.30;9.70;;;;;;;;;;5124726;28;20217;-62
2021/04/15 06:37:23;;;;;;;13.35;9.30;;;;;;;;;;5122706;28;20202;-63
2021/04/15 06:39:51;;;;;;;13.50;8.80;;;;;;;;;;5124201;28;20187;-62
2021/04/15 06:42:35;;;;;;;13.35;8.05;;;;;;;;;;5122324;28;20210;-63
2021/04/15 06:45:11;;;;;;;13.93;9.15;;;;;;;;;;5122613;27;20231;-63
2021/04/15 06:47:55;;;;;;;13.60;9.43;;;;;;;;;;5123438;28;20203;-63
2021/04/15 06:50:27;;;;;;;13.07;8.25;;;;;;;;;;5112134;27;20203;-63
2021/04/15 06:53:17;;;;;;;14.27;8.63;;;;;;;;;;5121501;28;20564;-64
2021/04/15 06:55:56;;;;;;;11.77;7.57;;;;;;;;;;5106219;28;20253;-64
2021/04/15 06:58:41;;;;;;;12.00;8.60;;;;;;;;;;5123891;28;20577;-63
2021/04/15 07:01:16;;;;;;;11.52;8.25;;;;;;;;;;5124236;28;20186;-61
2021/04/15 07:03:52;;;;;;;10.13;7.40;;;;;;;;;;5121924;28;20191;-63
2021/04/15 07:06:33;;;;;;;9.43;7.65;;;;;;;;;;5126835;28;20230;-63
2021/04/15 07:09:15;;;;;;;12.48;7.78;;;;;;;;;;5126742;28;20206;-63
2021/04/15 07:11:55;;;;;;;11.25;7.68;;;;;;;;;;5127398;28;20624;-63
2021/04/15 07:14:27;;;;;;;14.70;7.45;;;;;;;;;;5127588;28;20184;-63
2021/04/15 07:17:06;;;;;;;10.27;7.85;;;;;;;;;;5128073;28;20188;-62
2021/04/15 07:19:49;;;;;;;11.68;7.55;;;;;;;;;;5124761;28;20188;-63
2021/04/15 07:22:32;;;;;;;10.35;7.05;;;;;;;;;;5125482;28;20650;-62
2021/04/15 07:25:03;;;;;;;9.48;8.00;;;;;;;;;;5126370;28;20231;-63
2021/04/15 07:27:45;;;;;;;9.30;6.70;;;;;;;;;;5125038;28;20222;-63
2021/04/15 07:30:17;;;;;;;7.97;6.63;;;;;;;;;;5127000;28;20188;-63
2021/04/15 07:33:03;;;;;;;9.10;6.68;;;;;;;;;;5118452;28;20183;-64
2021/04/15 07:35:46;;;;;;;8.60;5.95;;;;;;;;;;5118015;28;20226;-63
2021/04/15 07:38:30;;;;;;;15.98;6.72;;;;;;;;;;5118449;28;20232;-63
2021/04/15 07:41:06;;;;;;;9.05;5.97;;;;;;;;;;5132496;28;20188;-62
2021/04/15 07:43:41;;;;;;;10.70;6.30;;;;;;;;;;5115851;28;20206;-64
2021/04/15 07:46:11;;;;;;;7.22;6.45;;;;;;;;;;5116890;28;20215;-64
2021/04/15 07:49:02;;;;;;;7.25;5.90;;;;;;;;;;5115259;28;20671;-63
2021/04/15 07:51:46;;;;;;;8.05;5.72;;;;;;;;;;5114896;28;20191;-64
2021/04/15 07:54:24;;;;;;;10.90;6.20;;;;;;;;;;5115147;28;20616;-62
2021/04/15 07:57:10;;;;;;;8.80;5.97;;;;;;;;;;5116131;28;20183;-63
2021/04/15 07:59:44;;;;;;;10.80;5.30;;;;;;;;;;5115737;28;20203;-63
2021/04/15 08:02:35;;;;;;;6.95;5.35;;;;;;;;;;5115314;28;20198;-63
2021/04/15 08:05:18;;;;;;;8.93;5.78;;;;;;;;;;5115862;28;20284;-63
2021/04/15 08:07:49;;;;;;;8.60;5.70;;;;;;;;;;5114949;28;20219;-64
2021/04/15 08:10:23;;;;;;;6.72;5.32;;;;;;;;;;5114976;28;20664;-63
2021/04/15 08:13:07;;;;;;;7.43;6.55;;;;;;;;;;5115800;28;20187;-63
2021/04/15 08:15:53;;;;;;;12.02;6.47;;;;;;;;;;5115636;28;20219;-63
2021/04/15 08:18:24;;;;;;;8.73;6.00;;;;;;;;;;5115864;28;20205;-63
2021/04/15 08:21:06;;;;;;;9.68;6.40;;;;;;;;;;5115386;28;20192;-62
2021/04/15 08:23:50;;;;;;;7.28;5.75;;;;;;;;;;5115278;28;20221;-63
2021/04/15 08:26:35;;;;;;;7.50;5.20;;;;;;;;;;5114883;28;20276;-64
2021/04/15 08:29:09;;;;;;;8.55;6.45;;;;;;;;;;5114021;28;20212;-63
2021/04/15 08:31:47;;;;;;;8.50;6.00;;;;;;;;;;5114849;28;20187;-63
2021/04/15 08:34:21;;;;;;;9.00;5.70;;;;;;;;;;5114533;28;20187;-62
2021/04/15 08:36:57;;;;;;;10.05;6.05;;;;;;;;;;5114463;28;20184;-62
2021/04/15 08:39:33;;;;;;;7.50;5.65;;;;;;;;;;5114426;28;20195;-63
2021/04/15 08:42:07;;;;;;;11.25;5.85;;;;;;;;;;5113913;28;20180;-62
2021/04/15 08:44:43;;;;;;;7.25;5.97;;;;;;;;;;5113903;28;20546;-63
2021/04/15 08:47:17;;;;;;;9.20;5.85;;;;;;;;;;5114096;28;20265;-62
2021/04/15 08:49:48;;;;;;;8.75;5.15;;;;;;;;;;5114643;28;20186;-63
2021/04/15 08:52:23;;;;;;;9.77;4.30;;;;;;;;;;5113973;28;20648;-63
2021/04/15 08:55:11;;;;;;;6.05;3.65;;;;;;;;;;5117665;28;20754;-63
2021/04/15 08:57:42;;;;;;;5.18;4.22;;;;;;;;;;5112767;28;20207;-64
2021/04/15 09:00:19;;;;;;;9.40;4.90;;;;;;;;;;5117740;28;20179;-63
2021/04/15 09:02:55;;;;;;;7.28;4.20;;;;;;;;;;5117709;28;20192;-64
2021/04/15 09:05:25;;;;;;;6.90;3.97;;;;;;;;;;5117896;28;20367;-64
2021/04/15 09:07:57;;;;;;;4.57;3.50;;;;;;;;;;5117946;28;20363;-62
2021/04/15 09:10:28;;;;;;;4.85;4.20;;;;;;;;;;5118155;28;20287;-63
2021/04/15 09:13:14;;;;;;;6.60;3.95;;;;;;;;;;5117816;28;20191;-63
2021/04/15 09:15:48;;;;;;;8.50;4.45;;;;;;;;;;5117906;28;20226;-63
2021/04/15 09:18:18;;;;;;;4.75;4.25;;;;;;;;;;5118634;28;20183;-62
2021/04/15 09:20:49;;;;;;;5.63;4.18;;;;;;;;;;5121943;28;20644;-63
2021/04/15 09:23:31;;;;;;;5.22;3.10;;;;;;;;;;5122873;27;20180;-63
2021/04/15 09:26:03;;;;;;;6.18;3.78;;;;;;;;;;5119576;28;20227;-63
2021/04/15 09:28:33;;;;;;;5.85;4.00;;;;;;;;;;5121253;28;20180;-63
2021/04/15 09:31:15;;;;;;;6.20;3.95;;;;;;;;;;5118309;28;20678;-63
2021/04/15 09:33:48;;;;;;;4.78;3.35;;;;;;;;;;5115843;28;20683;-62
2021/04/15 09:36:19;;;;;;;3.53;3.20;;;;;;;;;;5118597;28;20246;-63
2021/04/15 09:39:06;;;;;;;3.33;3.00;;;;;;;;;;5117842;28;20632;-64
2021/04/15 09:41:51;;;;;;;7.35;3.35;;;;;;;;;;5116811;28;20187;-64
2021/04/15 09:44:32;;;;;;;5.27;4.00;;;;;;;;;;5116272;28;20344;-64
2021/04/15 09:47:04;;;;;;;3.37;3.03;;;;;;;;;;5103989;28;20477;-64
2021/04/15 09:49:37;;;;;;;4.67;3.40;;;;;;;;;;5116796;28;20440;-64
2021/04/15 09:52:17;;;;;;;5.40;2.80;;;;;;;;;;5116286;28;20905;-64
2021/04/15 09:54:53;;;;;;;3.40;2.30;;;;;;;;;;5116260;28;20464;-63
2021/04/15 09:57:28;;;;;;;4.73;2.80;;;;;;;;;;5126972;28;20443;-64
2021/04/15 10:00:03;;;;;;;5.20;3.13;;;;;;;;;;5127352;28;20425;-65
2021/04/15 10:02:32;;;;;;;3.87;3.00;;;;;;;;;;5117258;28;20893;-64
2021/04/15 10:05:01;;;;;;;3.17;2.20;;;;;;;;;;5116310;27;20538;-63
2021/04/15 10:07:30;;;;;;;4.87;2.10;;;;;;;;;;5115352;28;20481;-63
2021/04/15 10:10:02;;;;;;;4.23;2.17;;;;;;;;;;5115895;28;20445;-64
2021/04/15 10:12:36;;;;;;;3.97;2.50;;;;;;;;;;5116029;28;20498;-63
2021/04/15 10:15:12;;;;;;;3.60;3.10;;;;;;;;;;5116342;28;20461;-64
2021/04/15 10:17:50;;;;;;;3.20;2.57;;;;;;;;;;5116999;28;20429;-64
2021/04/15 10:20:35;;;;;;;5.90;2.20;;;;;;;;;;5115839;28;20433;-63
2021/04/15 10:23:07;;;;;;;3.60;2.30;;;;;;;;;;5116516;28;20796;-63
2021/04/15 10:25:38;;;;;;;3.40;2.00;;;;;;;;;;5116330;28;20461;-63
2021/04/15 10:28:11;;;;;;;2.90;2.10;;;;;;;;;;5118084;28;20469;-64
2021/04/15 10:30:46;;;;;;;3.83;2.15;;;;;;;;;;5133638;28;20436;-63
2021/04/15 10:33:23;;;;;;;2.30;2.10;;;;;;;;;;5134528;28;20187;-64
2021/04/15 10:36:05;;;;;;;3.70;2.63;;;;;;;;;;5134621;28;20453;-64
2021/04/15 10:38:49;;;;;;;3.20;2.50;;;;;;;;;;5134042;28;20434;-63
2021/04/15 10:41:49;;;;;;;3.23;2.10;;;;;;;;;;5132059;28;20448;-64
2021/04/15 10:44:22;;;;;;;2.30;2.10;;;;;;;;;;5116146;28;20429;-63
2021/04/15 10:46:51;;;;;;;2.20;2.00;;;;;;;;;;5115604;28;20465;-63
2021/04/15 10:49:30;;;;;;;3.73;2.10;;;;;;;;;;5115632;27;20502;-65
2021/04/15 10:52:00;;;;;;;3.00;1.83;;;;;;;;;;5115804;28;20426;-63
2021/04/15 10:54:28;;;;;;;1.83;1.63;;;;;;;;;;5115222;28;20449;-63
2021/04/15 10:56:56;;;;;;;3.97;2.30;;;;;;;;;;5115251;28;20815;-64
2021/04/15 10:59:41;;;;;;;2.78;1.77;;;;;;;;;;5116767;28;20441;-64
2021/04/15 11:02:34;;;;;;;3.15;2.55;;;;;;;;;;5117281;28;20191;-64
2021/04/15 11:05:19;;;;;;;3.65;2.03;;;;;;;;;;5116583;28;20223;-63
2021/04/15 11:07:46;;;;;;;4.88;3.33;;;;;;;;;;5115263;28;20220;-64
2021/04/15 11:10:19;;;;;;;4.53;3.90;;;;;;;;;;5115220;28;20529;-62
2021/04/15 11:12:46;;;;;;;5.53;2.08;;;;;;;;;;5116671;28;20180;-63
2021/04/15 11:15:17;;;;;;;3.10;2.80;;;;;;;;;;5116177;28;20223;-63
2021/04/15 11:17:44;;;;;;;3.30;2.42;;;;;;;;;;5114601;28;20184;-64
2021/04/15 11:20:21;;;;;;;3.67;2.40;;;;;;;;;;5115183;28;20207;-64
2021/04/15 11:22:54;;;;;;;2.78;2.40;;;;;;;;;;5115209;28;20217;-63
2021/04/15 11:25:23;;;;;;;3.03;2.30;;;;;;;;;;5115497;28;20223;-63
2021/04/15 11:27:51;;;;;;;3.58;2.80;;;;;;;;;;5114790;28;20219;-63
2021/04/15 11:30:29;;;;;;;2.63;2.40;;;;;;;;;;5116328;28;20550;-63
2021/04/15 11:32:56;;;;;;;3.05;2.30;;;;;;;;;;5114988;28;20184;-62
2021/04/15 11:35:23;;;;;;;3.63;2.60;;;;;;;;;;5115109;28;20585;-62
2021/04/15 11:37:51;;;;;;;3.33;2.40;;;;;;;;;;5114505;28;20683;-63
2021/04/15 11:40:25;;;;;;;4.97;2.75;;;;;;;;;;5114788;28;20574;-63
2021/04/15 11:42:53;;;;;;;3.72;2.90;;;;;;;;;;5114444;28;20196;-62
2021/04/15 11:45:28;;;;;;;4.20;2.53;;;;;;;;;;5114671;28;20272;-63
2021/04/15 11:48:09;;;;;;;7.22;5.40;;;;;;;;;;5114210;28;20621;-64
2021/04/15 11:50:36;;;;;;;3.97;2.88;;;;;;;;;;5114223;28;20187;-63
2021/04/15 11:53:23;;;;;;;5.13;2.70;;;;;;;;;;5114358;28;20522;-62
2021/04/15 11:55:50;;;;;;;3.28;2.53;;;;;;;;;;5115842;28;20740;-63
2021/04/15 11:58:30;;;;;;;3.75;2.80;;;;;;;;;;5126861;28;20221;-62
2021/04/15 12:00:59;;;;;;;2.92;2.40;;;;;;;;;;5118157;28;20187;-63
2021/04/15 12:03:27;;;;;;;2.47;2.03;;;;;;;;;;5114706;28;20195;-63
2021/04/15 12:05:56;;;;;;;4.95;2.20;;;;;;;;;;5114938;28;20702;-63
2021/04/15 12:08:24;;;;;;;2.15;1.95;;;;;;;;;;5115066;28;20219;-63
2021/04/15 12:10:56;;;;;;;3.08;2.22;;;;;;;;;;5113975;28;20219;-63
2021/04/15 12:13:24;;;;;;;3.65;2.50;;;;;;;;;;5114056;28;20187;-63
2021/04/15 12:15:54;;;;;;;3.50;2.55;;;;;;;;;;5114329;28;20633;-62
2021/04/15 12:18:26;;;;;;;3.35;2.58;;;;;;;;;;5114454;28;20574;-64
2021/04/15 12:20:57;;;;;;;2.30;2.10;;;;;;;;;;5115015;28;20187;-63
2021/04/15 12:23:26;;;;;;;2.92;2.40;;;;;;;;;;5115090;28;20205;-61
2021/04/15 12:25:54;;;;;;;2.75;2.30;;;;;;;;;;5114457;28;20640;-63
2021/04/15 12:28:27;;;;;;;3.65;2.30;;;;;;;;;;5115484;28;20211;-63
2021/04/15 12:30:57;;;;;;;2.53;2.33;;;;;;;;;;5118434;28;20244;-64
2021/04/15 12:33:26;;;;;;;2.50;2.30;;;;;;;;;;5118564;28;20921;-63
2021/04/15 12:35:56;;;;;;;3.37;2.33;;;;;;;;;;5117968;28;20514;-63
2021/04/15 12:38:25;;;;;;;2.37;2.17;;;;;;;;;;5118053;28;20445;-63
2021/04/15 12:40:55;;;;;;;3.00;2.00;;;;;;;;;;5117752;28;20971;-63
2021/04/15 12:43:27;;;;;;;2.90;1.93;;;;;;;;;;5118250;28;20429;-63
2021/04/15 12:45:55;;;;;;;3.43;2.20;;;;;;;;;;5125385;28;20462;-63
2021/04/15 12:48:30;;;;;;;3.47;2.10;;;;;;;;;;5127075;28;20534;-63
2021/04/15 12:50:57;;;;;;;3.80;3.00;;;;;;;;;;5119428;28;20439;-64
2021/04/15 12:53:24;;;;;;;2.60;2.33;;;;;;;;;;5124181;28;20448;-63
2021/04/15 12:55:51;;;;;;;2.85;2.00;;;;;;;;;;5129776;28;20469;-64
2021/04/15 12:58:18;;;;;;;2.70;2.35;;;;;;;;;;5131864;28;20200;-64
2021/04/15 13:00:47;;;;;;;3.00;2.07;;;;;;;;;;5132277;28;20204;-63
2021/04/15 13:03:20;;;;;;;4.50;1.97;;;;;;;;;;5132182;28;20437;-63
2021/04/15 13:06:02;;;;;;;2.10;1.90;;;;;;;;;;5133814;28;20796;-63
2021/04/15 13:08:37;;;;;;;2.47;1.95;;;;;;;;;;5129324;28;20231;-63
2021/04/15 13:11:06;;;;;;;3.72;1.90;;;;;;;;;;5124486;28;20588;-62
2021/04/15 13:13:41;;;;;;;2.88;1.80;;;;;;;;;;5129113;27;20195;-62
2021/04/15 13:16:29;;;;;;;4.38;1.98;;;;;;;;;;5132246;28;20215;-64
2021/04/15 13:18:56;;;;;;;2.17;1.85;;;;;;;;;;5132062;28;20203;-63
2021/04/15 13:21:28;;;;;;;3.45;1.88;;;;;;;;;;5131381;28;20206;-63
2021/04/15 13:23:55;;;;;;;3.38;1.48;;;;;;;;;;5128180;28;20200;-61
2021/04/15 13:26:33;;;;;;;2.40;1.15;;;;;;;;;;5127342;28;20235;-64
2021/04/15 13:29:27;;;;;;;2.13;1.70;;;;;;;;;;5126873;28;20195;-64
2021/04/15 13:31:56;;;;;;;1.80;1.20;;;;;;;;;;5127286;28;20658;-63
2021/04/15 13:34:24;;;;;;;1.30;1.20;;;;;;;;;;5125938;28;20448;-64
2021/04/15 13:36:51;;;;;;;1.37;1.10;;;;;;;;;;5126149;28;20429;-62
2021/04/15 13:39:43;;;;;;;1.27;1.17;;;;;;;;;;5126166;28;20437;-64
2021/04/15 13:42:12;;;;;;;3.67;1.43;;;;;;;;;;5126328;28;20417;-64
2021/04/15 13:44:56;;;;;;;1.17;1.00;;;;;;;;;;5127353;28;20500;-64
2021/04/15 13:47:56;;;;;;;3.17;1.33;;;;;;;;;;5125275;28;20472;-64
2021/04/15 13:50:42;;;;;;;1.43;1.30;;;;;;;;;;5063520;28;20448;-63
2021/04/15 13:53:23;;;;;;;1.23;1.10;;;;;;;;;;5063460;28;20455;-62
2021/04/15 13:55:55;;;;;;;1.47;1.20;;;;;;;;;;5104938;28;20480;-64
2021/04/15 13:58:34;;;;;;;1.57;1.47;;;;;;;;;;5124691;28;20445;-64
2021/04/15 14:01:00;;;;;;;2.30;1.60;;;;;;;;;;5124606;28;20425;-63
2021/04/15 14:03:42;;;;;;;2.70;1.50;;;;;;;;;;5122600;28;20448;-63
2021/04/15 14:06:11;;;;;;;2.10;1.17;;;;;;;;;;5124174;27;20508;-63
2021/04/15 14:08:43;;;;;;;1.20;1.10;;;;;;;;;;5125412;28;20476;-63
2021/04/15 14:11:27;;;;;;;1.43;1.17;;;;;;;;;;5123780;28;20465;-62
2021/04/15 14:13:55;;;;;;;3.43;1.20;;;;;;;;;;5121777;28;20827;-63
2021/04/15 14:16:22;;;;;;;1.30;1.10;;;;;;;;;;5122276;28;20461;-63
2021/04/15 14:18:49;;;;;;;1.93;1.40;;;;;;;;;;5122864;28;20468;-64
2021/04/15 14:21:17;;;;;;;1.50;1.37;;;;;;;;;;5122489;28;20448;-63
2021/04/15 14:23:45;;;;;;;2.33;1.20;;;;;;;;;;5121324;28;20436;-63
2021/04/15 14:26:13;;;;;;;2.13;1.20;;;;;;;;;;5118792;28;20458;-63
2021/04/15 14:28:41;;;;;;;1.20;1.10;;;;;;;;;;5121780;28;20969;-63
2021/04/15 14:31:17;;;;;;;1.70;1.10;;;;;;;;;;5117984;28;20449;-63
2021/04/15 14:33:45;;;;;;;1.10;1.00;;;;;;;;;;5118389;28;20452;-63
2021/04/15 14:36:22;;;;;;;1.70;1.23;;;;;;;;;;5117277;28;20586;-63
2021/04/15 14:38:49;;;;;;;2.10;1.30;;;;;;;;;;5117504;28;20450;-63
2021/04/15 14:41:24;;;;;;;1.90;1.50;;;;;;;;;;5118232;28;20453;-63
2021/04/15 14:43:51;;;;;;;1.93;1.70;;;;;;;;;;5116600;28;20919;-63
2021/04/15 14:46:21;;;;;;;2.73;1.60;;;;;;;;;;5116388;28;20547;-62
2021/04/15 14:48:48;;;;;;;2.27;1.57;;;;;;;;;;5116138;28;20484;-62
2021/04/15 14:51:16;;;;;;;1.40;1.30;;;;;;;;;;5115570;28;20446;-62
2021/04/15 14:53:43;;;;;;;4.20;1.45;;;;;;;;;;5115916;28;20445;-63
2021/04/15 14:56:19;;;;;;;1.77;1.50;;;;;;;;;;5117254;28;20224;-63
2021/04/15 14:58:46;;;;;;;2.33;1.20;;;;;;;;;;5116559;28;20831;-61
2021/04/15 15:01:14;;;;;;;1.60;1.30;;;;;;;;;;5115717;28;20441;-63
2021/04/15 15:03:43;;;;;;;1.47;1.30;;;;;;;;;;5115480;28;20510;-62
2021/04/15 15:06:12;;;;;;;1.63;1.17;;;;;;;;;;5115001;28;20996;-62